.
WxDataArchive / Data Records for 2006-06-28
2006-06-27 June 2006 2006-06-29

Data Records for Wednesday, 28 June 2006

Time	Temp	Chill	HIndex	Humid	Dewpt	 Wind 	HiWind	WindDir	Rain 	Barom 
-----	----	-----	------	-----	-----	------	------	-------	-----	----- 
00:00	67.6	67.6	67.6	71	57.9	0	0	---	0.00	29.939 
00:05	67.3	67.3	67.3	73	58.3	0	0	---	0.00	29.939 
00:10	67.1	67.1	67.1	74	58.5	0	0	---	0.00	29.939 
00:15	66.8	66.8	66.8	75	58.6	0	0	---	0.00	29.943 
00:20	66.4	66.4	66.4	75	58.2	0	0	---	0.00	29.943 
00:25	66.1	66.1	66.1	75	57.9	0	0	---	0.00	29.943 
00:30	66.0	66.0	66.0	76	58.2	0	0	---	0.00	29.945 
00:35	65.6	65.6	65.6	76	57.8	0	0	---	0.00	29.945 
00:40	65.5	65.5	65.5	77	58.1	0	0	---	0.00	29.945 
00:45	65.2	65.2	65.2	77	57.8	0	0	---	0.00	29.946 
00:50	65.0	65.0	65.0	78	58.0	0	0	---	0.00	29.946 
00:55	64.7	64.7	64.7	79	58.0	0	0	---	0.00	29.946 
01:00	64.5	64.5	64.5	80	58.2	0	0	---	0.00	29.947 
01:05	64.3	64.3	64.3	81	58.3	0	0	---	0.00	29.947 
01:10	64.2	64.2	64.2	81	58.2	0	0	---	0.00	29.947 
01:15	63.9	63.9	63.9	81	57.9	0	0	---	0.00	29.958 
01:20	63.7	63.7	63.7	81	57.8	0	0	---	0.00	29.958 
01:25	63.5	63.5	63.5	82	57.9	0	0	---	0.00	29.958 
01:30	63.4	63.4	63.4	83	58.1	0	0	---	0.00	29.954 
01:35	63.1	63.1	63.1	83	57.8	0	0	---	0.00	29.954 
01:40	62.9	62.9	62.9	84	58.0	0	0	---	0.00	29.954 
01:45	62.7	62.7	62.7	84	57.8	0	0	---	0.00	29.960 
01:50	62.4	62.4	62.4	84	57.5	0	0	---	0.00	29.960 
01:55	62.3	62.3	62.3	85	57.7	0	0	---	0.00	29.960 
02:00	62.1	62.1	62.1	85	57.5	0	0	---	0.00	29.964 
02:05	62.0	62.0	62.0	85	57.4	0	0	---	0.00	29.964 
02:10	61.6	61.6	61.6	86	57.4	0	0	---	0.00	29.964 
02:15	61.5	61.5	61.5	86	57.3	0	0	---	0.00	29.957 
02:20	61.5	61.5	61.5	86	57.3	0	0	---	0.00	29.957 
02:25	61.3	61.3	61.3	87	57.4	0	0	---	0.00	29.957 
02:30	61.2	61.2	61.2	87	57.3	0	0	---	0.00	29.958 
02:35	61.0	61.0	61.0	88	57.4	0	0	---	0.00	29.958 
02:40	60.9	60.9	60.9	88	57.3	0	0	---	0.00	29.958 
02:45	60.9	60.9	60.9	89	57.6	0	0	---	0.00	29.950 
02:50	60.7	60.7	60.7	89	57.4	0	0	---	0.00	29.950 
02:55	60.5	60.5	60.5	89	57.2	0	0	---	0.00	29.950 
03:00	60.5	60.5	60.5	90	57.5	0	0	---	0.00	29.951 
03:05	60.4	60.4	60.4	89	57.1	0	0	---	0.00	29.951 
03:10	60.2	60.2	60.2	90	57.3	0	0	---	0.00	29.951 
03:15	60.2	60.2	60.2	90	57.3	0	0	---	0.00	29.958 
03:20	60.2	60.2	60.2	90	57.3	0	0	---	0.00	29.958 
03:25	60.1	60.1	60.1	90	57.2	0	0	---	0.00	29.958 
03:30	60.1	60.1	60.1	91	57.5	0	0	---	0.00	29.956 
03:35	59.9	59.9	59.9	91	57.3	0	0	---	0.00	29.956 
03:40	59.9	59.9	59.9	91	57.3	0	0	---	0.00	29.956 
03:45	59.8	59.8	59.8	91	57.2	0	0	---	0.00	29.950 
03:50	59.8	59.8	59.8	91	57.2	0	0	---	0.00	29.950 
03:55	59.8	59.8	59.8	91	57.2	0	0	---	0.00	29.950 
04:00	59.6	59.6	59.6	91	57.0	0	0	---	0.00	29.950 
04:05	59.5	59.5	59.5	91	56.9	0	0	---	0.00	29.950 
04:10	59.3	59.3	59.3	91	56.7	0	0	---	0.00	29.950 
04:15	59.2	59.2	59.2	91	56.6	0	0	---	0.00	29.949 
04:20	59.0	59.0	59.0	91	56.4	0	0	---	0.00	29.949 
04:25	59.0	59.0	59.0	92	56.7	0	0	---	0.00	29.949 
04:30	59.0	59.0	59.0	92	56.7	0	0	---	0.00	29.954 
04:35	59.0	59.0	59.0	92	56.7	0	0	---	0.00	29.954 
04:40	59.0	59.0	59.0	92	56.7	0	0	---	0.00	29.954 
04:45	59.0	59.0	59.0	92	56.7	0	0	---	0.00	29.956 
04:50	59.0	59.0	59.0	93	57.0	0	0	---	0.00	29.956 
04:55	58.9	58.9	58.9	93	56.9	0	0	---	0.00	29.956 
05:00	58.9	58.9	58.9	93	56.9	0	0	---	0.00	29.960 
05:05	58.9	58.9	58.9	93	56.9	0	0	---	0.00	29.960 
05:10	58.7	58.7	58.7	93	56.7	0	0	---	0.00	29.960 
05:15	58.7	58.7	58.7	93	56.7	0	0	---	0.00	29.959 
05:20	58.7	58.7	58.7	93	56.7	0	0	---	0.00	29.959 
05:25	58.7	58.7	58.7	93	56.7	0	0	---	0.00	29.959 
05:30	58.7	58.7	58.7	93	56.7	0	0	---	0.00	29.962 
05:35	58.6	58.6	58.6	93	56.6	0	0	---	0.00	29.962 
05:40	58.6	58.6	58.6	94	56.9	0	0	---	0.00	29.962 
05:45	58.6	58.6	58.6	94	56.9	0	0	---	0.00	29.965 
05:50	58.6	58.6	58.6	94	56.9	0	0	---	0.00	29.965 
05:55	58.6	58.6	58.6	94	56.9	0	0	---	0.00	29.965 
06:00	58.7	58.7	58.7	94	57.0	0	0	---	0.00	29.971 
06:05	58.9	58.9	58.9	94	57.2	0	0	---	0.00	29.971 
06:10	59.0	59.0	59.0	94	57.3	0	0	---	0.00	29.971 
06:15	59.2	59.2	59.2	95	57.8	0	0	---	0.00	29.974 
06:20	59.2	59.2	59.2	95	57.8	0	0	---	0.00	29.974 
06:25	59.2	59.2	59.2	95	57.8	0	0	---	0.00	29.974 
06:30	59.2	59.2	59.2	95	57.8	0	0	---	0.00	29.979 
06:35	59.0	59.0	59.0	95	57.6	0	0	---	0.00	29.979 
06:40	59.0	59.0	59.0	95	57.6	0	0	---	0.00	29.979 
06:45	59.0	59.0	59.0	95	57.6	0	0	---	0.00	29.983 
06:50	59.2	59.2	59.2	95	57.8	0	0	---	0.00	29.983 
06:55	59.2	59.2	59.2	95	57.8	0	0	---	0.00	29.983 
07:00	59.3	59.3	59.3	95	57.9	0	0	---	0.00	29.997 
07:05	59.5	59.5	59.5	95	58.1	0	0	---	0.00	29.997 
07:10	59.8	59.8	59.8	95	58.4	0	0	---	0.00	29.997 
07:15	60.1	60.1	60.1	95	58.7	0	0	---	0.00	29.996 
07:20	60.4	60.4	60.4	95	59.0	0	0	---	0.00	29.996 
07:25	60.9	60.9	60.9	95	59.5	0	1	270	0.00	29.996 
07:30	61.3	61.3	61.3	95	59.9	0	1	270	0.00	29.996 
07:35	62.1	62.1	62.1	94	60.3	0	2	270	0.00	29.996 
07:40	62.7	62.7	62.7	92	60.3	0	1	270	0.00	29.996 
07:45	63.4	63.4	63.4	87	59.5	0	1	270	0.00	29.997 
07:50	64.2	64.2	64.2	83	58.9	0	1	270	0.00	29.997 
07:55	65.0	65.0	65.0	80	58.7	1	2	270	0.00	29.997 
08:00	65.8	65.8	65.8	79	59.1	0	2	270	0.00	29.993 
08:05	66.4	66.4	66.4	76	58.6	1	2	270	0.00	29.993 
08:10	66.9	66.9	66.9	74	58.3	1	2	248	0.00	29.993 
08:15	67.4	67.4	67.4	73	58.4	1	2	248	0.00	29.995 
08:20	67.9	67.9	67.9	70	57.7	1	3	248	0.00	29.995 
08:25	68.1	68.1	68.1	70	57.9	1	3	248	0.00	29.995 
08:30	68.4	68.4	68.4	69	57.8	1	3	248	0.00	29.993 
08:35	68.6	68.6	68.6	69	58.0	1	3	248	0.00	29.993 
08:40	68.8	68.8	68.8	68	57.8	1	2	270	0.00	29.993 
08:45	69.1	69.1	69.1	67	57.7	1	2	270	0.00	30.000 
08:50	69.4	69.4	69.4	67	58.0	1	3	270	0.00	30.000 
08:55	69.8	69.8	69.8	65	57.5	2	4	248	0.00	30.000 
09:00	70.1	70.1	70.1	66	58.2	1	3	315	0.00	30.001 
09:05	70.6	70.6	70.6	65	58.2	1	3	248	0.00	30.001 
09:10	70.9	70.9	70.9	63	57.7	1	3	248	0.00	30.001 
09:15	71.1	71.1	71.1	61	57.0	1	3	270	0.00	30.006 
09:20	71.5	71.5	71.5	62	57.8	1	3	270	0.00	30.006 
09:25	71.6	71.6	71.6	60	57.0	2	3	270	0.00	30.006 
09:30	71.8	71.8	71.8	61	57.6	1	3	248	0.00	30.007 
09:35	72.0	72.0	72.0	60	57.3	2	3	315	0.00	30.007 
09:40	72.3	72.3	72.3	62	58.5	1	3	270	0.00	30.007 
09:45	72.8	72.8	72.8	59	57.6	1	3	270	0.00	30.008 
09:50	73.0	73.0	73.0	62	59.2	1	3	270	0.00	30.008 
09:55	73.2	73.2	73.2	59	58.0	1	3	270	0.00	30.008 
10:00	73.3	73.3	73.3	61	59.0	2	4	270	0.00	30.009 
10:05	73.7	73.7	73.7	60	58.9	1	3	338	0.00	30.009 
10:10	74.0	74.0	74.0	57	57.8	1	3	315	0.00	30.009 
10:15	74.2	74.2	74.2	58	58.5	2	4	248	0.00	30.008 
10:20	74.4	74.4	74.4	56	57.7	2	4	270	0.00	30.008 
10:25	74.6	74.6	74.6	56	57.8	2	4	248	0.00	30.008 
10:30	74.9	74.9	74.9	56	58.1	1	3	292	0.00	30.005 
10:35	75.3	75.3	77.6	57	59.0	2	3	270	0.00	30.005 
10:40	75.3	75.3	77.7	54	57.5	2	3	248	0.00	30.005 
10:45	75.6	75.6	77.9	53	57.2	1	4	248	0.00	30.005 
10:50	76.1	76.1	78.1	52	57.2	2	4	270	0.00	30.005 
10:55	76.3	76.3	78.3	54	58.4	1	5	248	0.00	30.005 
11:00	76.5	76.5	78.4	54	58.6	2	4	248	0.00	30.002 
11:05	76.7	76.7	78.5	55	59.3	2	4	248	0.00	30.002 
11:10	76.8	76.8	78.5	53	58.4	2	4	248	0.00	30.002 
11:15	77.0	77.0	78.7	54	59.1	2	5	270	0.00	30.003 
11:20	77.2	77.2	78.8	53	58.7	2	3	248	0.00	30.003 
11:25	77.7	77.7	79.2	53	59.2	2	4	248	0.00	30.003 
11:30	78.1	78.1	79.4	51	58.5	2	4	248	0.00	30.003 
11:35	78.1	78.1	79.3	50	57.9	2	5	248	0.00	30.003 
11:40	78.5	78.5	79.5	49	57.7	2	5	248	0.00	30.003 
11:45	78.6	78.6	79.7	50	58.4	2	5	248	0.00	30.004 
11:50	78.5	78.5	79.7	52	59.4	2	4	315	0.00	30.004 
11:55	78.5	78.5	79.5	48	57.2	2	5	248	0.00	30.004 
12:00	78.5	78.5	79.8	53	59.9	3	6	248	0.00	30.003 
12:05	79.0	79.0	79.8	48	57.6	2	5	270	0.00	30.003 
12:10	79.0	79.0	79.9	49	58.2	3	5	270	0.00	30.003 
12:15	79.0	79.0	80.0	50	58.7	2	5	248	0.00	30.005 
12:20	79.2	79.2	80.0	48	57.8	2	5	270	0.00	30.005 
12:25	79.4	79.4	79.9	45	56.2	3	6	248	0.00	30.005 
12:30	79.6	79.6	79.9	43	55.1	3	8	270	0.00	30.000 
12:35	79.2	79.2	79.9	47	57.2	3	5	270	0.00	30.000 
12:40	79.4	79.4	79.8	44	55.6	2	4	248	0.00	30.000 
12:45	79.2	79.2	80.0	48	57.8	2	4	248	0.00	29.994 
12:50	79.8	79.8	80.2	45	56.5	2	6	248	0.00	29.994 
12:55	80.1	80.1	80.3	43	55.6	3	6	248	0.00	29.994 
13:00	80.3	80.3	80.5	44	56.4	2	6	292	0.00	29.989 
13:05	80.1	80.1	80.4	45	56.8	2	6	248	0.00	29.989 
13:10	80.3	80.3	80.6	45	57.0	2	5	248	0.00	29.989 
13:15	80.5	80.5	80.6	43	55.9	2	5	270	0.00	29.978 
13:20	80.9	80.9	80.7	41	55.0	2	4	270	0.00	29.978 
13:25	80.9	80.9	80.8	42	55.6	3	6	248	0.00	29.978 
13:30	80.9	80.9	80.7	41	55.0	3	6	248	0.00	29.976 
13:35	81.2	81.2	80.8	40	54.6	2	6	248	0.00	29.976 
13:40	81.4	81.4	81.2	42	56.1	2	4	270	0.00	29.976 
13:45	81.6	81.6	81.5	43	56.9	3	5	270	0.00	29.974 
13:50	81.8	81.8	81.4	41	55.8	3	6	270	0.00	29.974 
13:55	81.6	81.6	80.9	38	53.5	3	7	270	0.00	29.974 
14:00	81.6	81.6	81.5	43	56.9	2	6	248	0.00	29.967 
14:05	82.0	82.0	81.3	39	54.6	2	5	270	0.00	29.967 
14:10	81.4	81.4	81.0	40	54.7	3	6	270	0.00	29.967 
14:15	81.8	81.8	81.6	43	57.1	2	5	248	0.00	29.961 
14:20	81.4	81.4	81.1	41	55.4	2	4	248	0.00	29.961 
14:25	81.1	81.1	80.9	42	55.8	2	6	248	0.00	29.961 
14:30	80.7	80.7	80.6	42	55.4	2	4	248	0.00	29.974 
14:35	80.1	80.1	80.3	43	55.6	3	5	270	0.00	29.974 
14:40	79.6	79.6	80.0	45	56.4	3	9	270	0.00	29.974 
14:45	78.8	78.8	79.6	47	56.8	2	4	270	0.00	29.971 
14:50	77.9	77.9	79.2	50	57.7	1	4	270	0.00	29.971 
14:55	77.2	77.2	78.7	49	56.5	2	4	248	0.00	29.971 
15:00	76.7	76.7	78.3	46	54.3	3	7	270	0.00	29.967 
15:05	76.1	76.1	78.1	52	57.2	2	5	248	0.00	29.967 
15:10	75.8	75.8	78.0	54	57.9	2	5	248	0.00	29.967 
15:15	75.3	75.3	77.7	56	58.5	2	6	248	0.00	29.955 
15:20	74.6	74.6	74.6	58	58.8	2	4	270	0.00	29.955 
15:25	74.0	74.0	74.0	59	58.7	3	6	248	0.00	29.955 
15:30	73.9	73.9	73.9	59	58.7	2	4	248	0.00	29.981 
15:35	73.5	73.5	73.5	58	57.8	1	3	270	0.00	29.981 
15:40	73.3	73.3	73.3	57	57.1	1	3	292	0.00	29.981 
15:45	73.5	73.5	73.5	57	57.3	1	3	270	0.00	29.983 
15:50	73.5	73.5	73.5	56	56.8	1	4	248	0.00	29.983 
15:55	73.5	73.5	73.5	55	56.3	1	3	248	0.00	29.983 
16:00	73.3	73.3	73.3	55	56.1	1	3	248	0.00	29.989 
16:05	73.2	73.2	73.2	56	56.5	1	3	270	0.00	29.989 
16:10	72.8	72.8	72.8	57	56.7	1	3	270	0.00	29.989 
16:15	72.5	72.5	72.5	56	55.9	2	5	248	0.00	29.987 
16:20	72.1	72.1	72.1	56	55.5	1	2	270	0.00	29.987 
16:25	72.0	72.0	72.0	56	55.4	0	1	270	0.00	29.987 
16:30	71.8	71.8	71.8	58	56.2	1	3	112	0.00	29.976 
16:35	71.3	71.3	71.3	57	55.3	1	5	90	0.00	29.976 
16:40	70.9	70.9	70.9	60	56.3	0	1	90	0.00	29.976 
16:45	70.9	70.9	70.9	61	56.8	0	2	90	0.00	29.971 
16:50	71.5	71.5	71.5	58	55.9	1	3	248	0.00	29.971 
16:55	72.5	72.5	72.5	57	56.4	1	3	248	0.00	29.971 
17:00	73.7	73.7	73.7	55	56.5	0	3	225	0.00	29.964 
17:05	74.9	74.9	74.9	55	57.6	1	3	270	0.00	29.964 
17:10	75.3	75.3	77.7	53	57.0	0	1	270	0.00	29.964 
17:15	74.7	74.7	74.7	50	54.8	1	2	270	0.00	29.971 
17:20	74.2	74.2	74.2	53	56.0	0	1	270	0.00	29.971 
17:25	73.5	73.5	73.5	57	57.3	1	2	270	0.00	29.971 
17:30	72.7	72.7	72.7	61	58.5	0	1	270	0.00	29.987 
17:35	71.6	71.6	71.6	63	58.3	0	2	270	0.00	29.987 
17:40	70.8	70.8	70.8	69	60.1	0	1	270	0.01	29.987 
17:45	69.6	69.6	69.6	72	60.2	0	1	270	0.00	29.971 
17:50	68.8	68.8	68.8	74	60.2	0	1	270	0.00	29.971 
17:55	68.6	68.6	68.6	77	61.1	0	1	270	0.00	29.971 
18:00	68.3	68.3	68.3	76	60.4	0	3	270	0.00	29.985 
18:05	67.9	67.9	67.9	77	60.4	0	1	248	0.00	29.985 
18:10	67.8	67.8	67.8	77	60.3	0	0	---	0.00	29.985 
18:15	67.8	67.8	67.8	78	60.7	0	0	---	0.00	29.976 
18:20	67.8	67.8	67.8	79	61.0	0	1	248	0.00	29.976 
18:25	67.8	67.8	67.8	79	61.0	0	1	248	0.00	29.976 
18:30	67.9	67.9	67.9	80	61.5	0	0	---	0.00	29.984 
18:35	67.9	67.9	67.9	80	61.5	0	0	---	0.00	29.984 
18:40	68.1	68.1	68.1	80	61.7	0	0	---	0.00	29.984 
18:45	68.4	68.4	68.4	81	62.3	0	0	---	0.00	29.975 
18:50	68.6	68.6	68.6	80	62.2	0	0	---	0.00	29.975 
18:55	68.8	68.8	68.8	78	61.7	0	0	---	0.00	29.975 
19:00	68.9	68.9	68.9	80	62.5	0	0	---	0.00	29.982 
19:05	69.1	69.1	69.1	78	61.9	0	2	248	0.00	29.982 
19:10	69.3	69.3	69.3	71	59.5	1	4	248	0.00	29.982 
19:15	69.6	69.6	69.6	67	58.1	2	5	248	0.00	29.980 
19:20	69.8	69.8	69.8	66	57.9	2	3	270	0.00	29.980 
19:25	69.9	69.9	69.9	67	58.4	1	2	248	0.00	29.980 
19:30	70.1	70.1	70.1	68	59.0	1	3	248	0.00	29.987 
19:35	70.4	70.4	70.4	65	58.1	1	4	270	0.00	29.987 
19:40	70.6	70.6	70.6	65	58.2	1	3	248	0.00	29.987 
19:45	70.6	70.6	70.6	64	57.8	1	5	270	0.00	29.986 
19:50	70.6	70.6	70.6	65	58.2	1	2	270	0.00	29.986 
19:55	70.3	70.3	70.3	66	58.4	1	3	315	0.00	29.986 
20:00	70.3	70.3	70.3	66	58.4	1	3	315	0.00	29.991 
20:05	70.1	70.1	70.1	66	58.2	1	4	270	0.00	29.991 
20:10	70.1	70.1	70.1	67	58.6	1	2	248	0.00	29.991 
20:15	70.1	70.1	70.1	67	58.6	1	2	248	0.00	29.995 
20:20	69.9	69.9	69.9	67	58.4	0	2	248	0.00	29.995 
20:25	69.9	69.9	69.9	68	58.8	0	1	248	0.00	29.995 
20:30	69.8	69.8	69.8	68	58.7	1	5	248	0.00	29.998 
20:35	69.6	69.6	69.6	69	59.0	1	3	248	0.00	29.998 
20:40	69.3	69.3	69.3	70	59.1	1	3	248	0.00	29.998 
20:45	68.9	68.9	68.9	71	59.1	1	3	248	0.00	29.997 
20:50	68.6	68.6	68.6	72	59.2	1	3	248	0.00	29.997 
20:55	68.4	68.4	68.4	73	59.4	0	2	248	0.00	29.997 
21:00	68.1	68.1	68.1	74	59.5	1	3	248	0.00	29.997 
21:05	67.8	67.8	67.8	75	59.6	0	1	248	0.00	29.997 
21:10	67.6	67.6	67.6	75	59.4	0	2	248	0.00	29.997 
21:15	67.3	67.3	67.3	76	59.5	1	3	248	0.00	29.994 
21:20	66.9	66.9	66.9	77	59.4	0	2	248	0.00	29.994 
21:25	66.8	66.8	66.8	77	59.3	0	2	248	0.00	29.994 
21:30	66.6	66.6	66.6	77	59.2	0	2	248	0.00	29.997 
21:35	66.3	66.3	66.3	78	59.2	0	2	248	0.00	29.997 
21:40	66.1	66.1	66.1	79	59.4	0	1	248	0.00	29.997 
21:45	66.0	66.0	66.0	79	59.3	0	1	248	0.00	30.000 
21:50	65.8	65.8	65.8	80	59.5	0	1	248	0.00	30.000 
21:55	65.6	65.6	65.6	80	59.3	0	1	248	0.00	30.000 
22:00	65.5	65.5	65.5	81	59.5	0	1	248	0.00	29.999 
22:05	65.3	65.3	65.3	81	59.3	0	1	248	0.00	29.999 
22:10	65.3	65.3	65.3	81	59.3	0	1	248	0.00	29.999 
22:15	65.2	65.2	65.2	81	59.2	0	1	248	0.00	29.996 
22:20	65.0	65.0	65.0	82	59.4	0	2	248	0.00	29.996 
22:25	65.0	65.0	65.0	82	59.4	0	1	248	0.00	29.996 
22:30	65.0	65.0	65.0	82	59.4	0	2	248	0.00	30.004 
22:35	65.0	65.0	65.0	82	59.4	0	1	248	0.00	30.004 
22:40	64.8	64.8	64.8	83	59.5	0	1	248	0.00	30.004 
22:45	64.7	64.7	64.7	83	59.4	0	1	248	0.00	30.008 
22:50	64.5	64.5	64.5	83	59.2	0	1	248	0.00	30.008 
22:55	64.3	64.3	64.3	84	59.4	0	1	248	0.00	30.008 
23:00	64.3	64.3	64.3	84	59.4	0	1	248	0.00	30.013 
23:05	64.2	64.2	64.2	84	59.3	0	1	248	0.00	30.013 
23:10	64.0	64.0	64.0	85	59.4	0	1	248	0.00	30.013 
23:15	64.0	64.0	64.0	85	59.4	0	1	248	0.00	30.011 
23:20	63.9	63.9	63.9	85	59.3	0	0	---	0.00	30.011 
23:25	63.7	63.7	63.7	85	59.1	0	0	---	0.00	30.011 
23:30	63.5	63.5	63.5	86	59.2	0	0	---	0.00	30.011 
23:35	63.2	63.2	63.2	86	58.9	0	0	---	0.00	30.011 
23:40	63.1	63.1	63.1	87	59.2	0	0	---	0.00	30.011 
23:45	62.9	62.9	62.9	87	59.0	0	0	---	0.00	30.009 
23:50	62.6	62.6	62.6	88	59.0	0	0	---	0.00	30.009 
23:55	62.4	62.4	62.4	88	58.8	0	0	---	0.00	30.009 

CoCoRaHS
IN-AL-39
A2 Web Hosting
Creative Commons License
GoDaddy
Look for:

loaded 2017-10-18 21:51:36 • last modified 2010-11-18 10:43:29
Privacy PolicyDisclaimer
• wx.awcolley.com is powered by PmWiki v.2002016 •
• all content (unless otherwise noted) © 2017 A W Colley